createdAt,value
2024-02-23T00:02:25.953Z,17.52
2024-02-23T00:04:52.577Z,17.52
2024-02-23T00:07:19.056Z,17.52
2024-02-23T00:09:45.542Z,17.52
2024-02-23T00:12:12.249Z,17.52
2024-02-23T00:14:39.228Z,17.50
2024-02-23T00:17:06.007Z,17.50
2024-02-23T00:19:32.885Z,17.50
2024-02-23T00:22:00.572Z,17.51
2024-02-23T00:24:27.553Z,17.50
2024-02-23T00:26:54.233Z,17.50
2024-02-23T00:29:21.125Z,17.48
2024-02-23T00:31:47.903Z,17.48
2024-02-23T00:34:15.198Z,17.47
2024-02-23T00:36:42.641Z,17.47
2024-02-23T00:39:09.600Z,17.49
2024-02-23T00:41:36.836Z,17.49
2024-02-23T00:44:04.505Z,17.47
2024-02-23T00:46:31.359Z,17.46
2024-02-23T00:48:57.968Z,17.45
2024-02-23T00:51:24.611Z,17.45
2024-02-23T00:53:51.145Z,17.46
2024-02-23T00:56:17.648Z,17.46
2024-02-23T00:58:44.272Z,17.44
2024-02-23T01:01:10.915Z,17.44
2024-02-23T01:03:37.572Z,17.42
2024-02-23T01:06:04.484Z,17.42
2024-02-23T01:08:31.117Z,17.42
2024-02-23T01:10:57.689Z,17.43
2024-02-23T01:13:24.276Z,17.41
2024-02-23T01:15:50.883Z,17.41
2024-02-23T01:18:17.613Z,17.41
2024-02-23T01:20:44.258Z,17.40
2024-02-23T01:23:10.761Z,17.40
2024-02-23T01:25:38.529Z,17.40
2024-02-23T01:28:05.471Z,17.41
2024-02-23T01:30:31.961Z,17.37
2024-02-23T01:32:58.673Z,17.38
2024-02-23T01:35:25.332Z,17.37
2024-02-23T01:37:51.914Z,17.37
2024-02-23T01:40:18.477Z,17.38
2024-02-23T01:42:44.985Z,17.35
2024-02-23T01:45:11.501Z,17.35
2024-02-23T01:47:39.070Z,17.34
2024-02-23T01:50:07.736Z,17.34
2024-02-23T01:52:34.351Z,17.34
2024-02-23T01:55:02.032Z,17.33
2024-02-23T01:57:40.338Z,17.34
2024-02-23T02:00:18.919Z,17.34
2024-02-23T02:02:46.036Z,17.34
2024-02-23T02:05:12.738Z,17.34
2024-02-23T02:07:41.635Z,17.33
2024-02-23T02:10:09.933Z,17.34
2024-02-23T02:12:36.928Z,17.31
2024-02-23T02:15:04.674Z,17.34
2024-02-23T02:17:34.124Z,17.32
2024-02-23T02:20:05.614Z,17.31
2024-02-23T02:22:34.481Z,17.31
2024-02-23T02:25:00.956Z,17.32
2024-02-23T02:27:27.750Z,17.31
2024-02-23T02:29:54.280Z,17.31
2024-02-23T02:32:20.839Z,17.29
2024-02-23T02:34:47.456Z,17.29
2024-02-23T02:37:14.072Z,17.28
2024-02-23T02:39:40.678Z,17.30
2024-02-23T02:42:07.519Z,17.28
2024-02-23T02:44:33.996Z,17.29
2024-02-23T02:47:00.563Z,17.27
2024-02-23T02:49:27.117Z,17.27
2024-02-23T02:51:53.708Z,17.28
2024-02-23T02:54:20.208Z,17.26
2024-02-23T02:56:49.054Z,17.27
2024-02-23T02:59:15.571Z,17.26
2024-02-23T03:01:42.085Z,17.25
2024-02-23T03:04:09.325Z,17.25
2024-02-23T03:06:36.032Z,17.25
2024-02-23T03:09:03.405Z,17.25
2024-02-23T03:11:30.001Z,17.24
2024-02-23T03:13:56.605Z,17.25
2024-02-23T03:16:27.219Z,17.24
2024-02-23T03:18:55.373Z,17.24
2024-02-23T03:21:21.847Z,17.23
2024-02-23T03:23:48.317Z,17.21
2024-02-23T03:26:17.193Z,17.23
2024-02-23T03:28:44.325Z,17.22
2024-02-23T03:31:10.820Z,17.22
2024-02-23T03:33:37.610Z,17.22
2024-02-23T03:36:04.920Z,17.21
2024-02-23T03:38:32.878Z,17.20
2024-02-23T03:40:59.732Z,17.20
2024-02-23T03:43:26.245Z,17.22
2024-02-23T03:45:52.819Z,17.22
2024-02-23T03:48:19.534Z,17.22
2024-02-23T03:50:47.198Z,17.22
2024-02-23T03:53:13.819Z,17.23
2024-02-23T03:55:40.314Z,17.23
2024-02-23T03:58:07.391Z,17.24
2024-02-23T04:00:34.022Z,17.23
2024-02-23T04:03:00.578Z,17.22
2024-02-23T04:05:27.224Z,17.22
2024-02-23T04:07:53.832Z,17.22
2024-02-23T04:10:20.887Z,17.22
2024-02-23T04:12:48.421Z,17.21
2024-02-23T04:15:15.007Z,17.20
2024-02-23T04:17:41.804Z,17.20
2024-02-23T04:20:10.996Z,17.16
2024-02-23T04:22:38.454Z,17.15
2024-02-23T04:25:06.191Z,17.16
2024-02-23T04:27:32.919Z,17.15
2024-02-23T04:29:59.496Z,17.14
2024-02-23T04:32:26.145Z,17.14
2024-02-23T04:34:52.696Z,17.13
2024-02-23T04:37:19.269Z,17.13
2024-02-23T04:39:45.848Z,17.13
2024-02-23T04:42:12.398Z,17.12
2024-02-23T04:44:38.987Z,17.10
2024-02-23T04:47:06.038Z,17.11
2024-02-23T04:49:32.617Z,17.11
2024-02-23T04:51:59.370Z,17.11
2024-02-23T04:54:26.114Z,17.08
2024-02-23T04:56:52.590Z,17.08
2024-02-23T04:59:19.217Z,17.07
2024-02-23T05:01:45.691Z,17.07
2024-02-23T05:04:12.163Z,17.08
2024-02-23T05:06:38.779Z,17.07
2024-02-23T05:09:06.744Z,17.08
2024-02-23T05:11:33.333Z,17.07
2024-02-23T05:13:59.918Z,17.06
2024-02-23T05:16:26.441Z,17.10
2024-02-23T05:18:53.405Z,17.11
2024-02-23T05:21:19.932Z,17.12
2024-02-23T05:23:47.535Z,17.13
2024-02-23T05:26:14.272Z,17.17
2024-02-23T05:28:40.845Z,17.18
2024-02-23T05:31:07.380Z,17.20
2024-02-23T05:33:33.857Z,17.20
2024-02-23T05:36:00.338Z,17.20
2024-02-23T05:38:26.899Z,17.20
2024-02-23T05:40:53.414Z,17.19
2024-02-23T05:43:19.936Z,17.20
2024-02-23T05:45:46.600Z,17.17
2024-02-23T05:48:13.204Z,17.18
2024-02-23T05:50:40.027Z,17.18
2024-02-23T05:53:06.927Z,17.20
2024-02-23T05:55:33.498Z,17.20
2024-02-23T05:58:00.219Z,17.20
2024-02-23T06:00:26.805Z,17.19
2024-02-23T06:02:53.279Z,17.20
2024-02-23T06:05:19.831Z,17.19
2024-02-23T06:07:46.426Z,17.20
2024-02-23T06:10:12.986Z,17.21
2024-02-23T06:12:39.684Z,17.21
2024-02-23T06:15:07.277Z,17.21
2024-02-23T06:17:33.803Z,17.18
2024-02-23T06:20:00.779Z,17.15
2024-02-23T06:22:27.374Z,17.15
2024-02-23T06:24:53.930Z,17.13
2024-02-23T06:27:20.453Z,17.11
2024-02-23T06:29:46.904Z,17.10
2024-02-23T06:32:13.430Z,17.09
2024-02-23T06:34:39.911Z,17.07
2024-02-23T06:37:06.611Z,17.07
2024-02-23T06:39:33.258Z,17.06
2024-02-23T06:42:01.779Z,17.06
2024-02-23T06:44:28.400Z,17.05
2024-02-23T06:46:54.971Z,17.03
2024-02-23T06:49:21.626Z,17.02
2024-02-23T06:51:48.110Z,16.99
2024-02-23T06:54:14.952Z,16.99
2024-02-23T06:56:41.410Z,17.00
2024-02-23T06:59:07.964Z,16.99
2024-02-23T07:01:39.186Z,16.99
2024-02-23T07:04:07.497Z,16.97
2024-02-23T07:06:35.304Z,16.92
2024-02-23T07:09:01.824Z,16.91
2024-02-23T07:11:28.868Z,16.90
2024-02-23T07:13:55.401Z,16.91
2024-02-23T07:16:23.153Z,16.94
2024-02-23T07:18:49.722Z,16.93
2024-02-23T07:21:18.963Z,16.93
2024-02-23T07:23:45.551Z,16.94
2024-02-23T07:26:12.043Z,16.94
2024-02-23T07:28:38.565Z,16.93
2024-02-23T07:31:05.190Z,16.95
2024-02-23T07:33:31.755Z,16.94
2024-02-23T07:35:59.858Z,16.97
2024-02-23T07:38:26.397Z,16.96
2024-02-23T07:40:52.970Z,16.96
2024-02-23T07:43:19.736Z,16.97
2024-02-23T07:45:46.248Z,16.97
2024-02-23T07:48:12.902Z,16.98
2024-02-23T07:50:39.648Z,16.99
2024-02-23T07:53:06.331Z,17.03
2024-02-23T07:55:33.902Z,17.03
2024-02-23T07:58:02.856Z,17.05
2024-02-23T08:00:29.622Z,17.06
2024-02-23T08:03:00.272Z,17.06
2024-02-23T08:05:26.865Z,17.06
2024-02-23T08:07:53.590Z,17.06
2024-02-23T08:10:20.265Z,17.04
2024-02-23T08:12:46.808Z,17.04
2024-02-23T08:15:13.403Z,17.04
2024-02-23T08:17:40.018Z,17.03
2024-02-23T08:20:07.184Z,17.03
2024-02-23T08:22:33.696Z,17.02
2024-02-23T08:25:00.241Z,17.01
2024-02-23T08:27:26.924Z,17.01
2024-02-23T08:29:53.391Z,17.01
2024-02-23T08:32:20.117Z,17.00
2024-02-23T08:34:46.797Z,17.00
2024-02-23T08:37:13.401Z,16.99
2024-02-23T08:39:40.103Z,16.99
2024-02-23T08:42:06.533Z,16.97
2024-02-23T08:44:33.143Z,16.97
2024-02-23T08:46:59.683Z,16.98
2024-02-23T08:49:26.302Z,16.97
2024-02-23T08:51:52.798Z,16.97
2024-02-23T08:54:19.714Z,16.99
2024-02-23T08:56:46.330Z,17.00
2024-02-23T08:59:13.246Z,17.01
2024-02-23T09:01:39.734Z,17.02
2024-02-23T09:04:06.332Z,17.01
2024-02-23T09:06:37.761Z,17.01
2024-02-23T09:09:06.254Z,17.00
2024-02-23T09:11:32.827Z,17.00
2024-02-23T09:13:59.427Z,17.01
2024-02-23T09:16:25.892Z,17.01
2024-02-23T09:18:52.413Z,17.04
2024-02-23T09:21:20.083Z,17.05
2024-02-23T09:23:46.837Z,17.04
2024-02-23T09:26:13.534Z,17.05
2024-02-23T09:28:42.602Z,17.04
2024-02-23T09:31:09.218Z,17.04
2024-02-23T09:33:35.830Z,17.03
2024-02-23T09:36:02.405Z,17.04
2024-02-23T09:38:29.499Z,17.04
2024-02-23T09:40:56.135Z,17.05
2024-02-23T09:43:26.110Z,17.05
2024-02-23T09:45:53.951Z,17.03
2024-02-23T09:48:22.293Z,17.02
2024-02-23T09:50:49.373Z,17.01
2024-02-23T09:53:16.520Z,17.02
2024-02-23T09:55:44.574Z,17.03
2024-02-23T09:58:14.040Z,17.02
2024-02-23T10:00:40.880Z,17.03
2024-02-23T10:03:07.635Z,17.02
2024-02-23T10:05:37.021Z,17.02
2024-02-23T10:08:06.148Z,17.04
2024-02-23T10:10:38.611Z,17.02
2024-02-23T10:13:06.212Z,17.02
2024-02-23T10:15:32.752Z,17.02
2024-02-23T10:17:59.994Z,17.01
2024-02-23T10:20:26.736Z,17.02
2024-02-23T10:22:54.998Z,17.01
2024-02-23T10:25:21.984Z,17.02
2024-02-23T10:27:48.505Z,17.03
2024-02-23T10:30:16.512Z,17.02
2024-02-23T10:32:43.548Z,17.02
2024-02-23T10:35:17.450Z,17.02
2024-02-23T10:37:45.884Z,17.02
2024-02-23T10:40:13.737Z,17.01
2024-02-23T10:42:43.009Z,17.00
2024-02-23T10:45:10.047Z,17.01
2024-02-23T10:47:38.064Z,17.00
2024-02-23T10:50:06.005Z,17.01
2024-02-23T10:52:33.141Z,17.01
2024-02-23T10:55:01.488Z,16.99
2024-02-23T10:57:28.460Z,17.01
2024-02-23T10:59:55.671Z,17.00
2024-02-23T11:02:24.938Z,16.99
2024-02-23T11:04:52.117Z,17.01
2024-02-23T11:07:22.257Z,16.99
2024-02-23T11:09:59.223Z,17.00
2024-02-23T11:12:30.969Z,16.99
2024-02-23T11:14:59.889Z,17.00
2024-02-23T11:17:29.231Z,17.01
2024-02-23T11:19:57.151Z,17.01
2024-02-23T11:22:38.431Z,17.01
2024-02-23T11:25:07.700Z,16.99
2024-02-23T11:27:35.128Z,17.00
2024-02-23T11:30:11.277Z,17.00
2024-02-23T11:32:43.142Z,17.01
2024-02-23T11:35:11.935Z,17.01
2024-02-23T11:37:47.476Z,17.01
2024-02-23T11:40:14.786Z,17.00
2024-02-23T11:42:44.328Z,17.00
2024-02-23T11:45:11.905Z,17.01
2024-02-23T11:47:39.705Z,17.01
2024-02-23T11:50:10.873Z,17.00
2024-02-23T11:52:40.438Z,17.01
2024-02-23T11:55:07.980Z,16.99
2024-02-23T11:57:42.864Z,16.93
2024-02-23T12:00:14.615Z,16.95
2024-02-23T12:02:41.460Z,16.96
2024-02-23T12:05:08.795Z,16.98
2024-02-23T12:07:35.984Z,16.99
2024-02-23T12:10:05.320Z,16.99
2024-02-23T12:12:32.082Z,17.00
2024-02-23T12:15:00.250Z,16.99
2024-02-23T12:17:28.357Z,17.00
2024-02-23T12:20:04.052Z,17.01
2024-02-23T12:22:30.761Z,17.01
2024-02-23T12:25:01.035Z,17.00
2024-02-23T12:27:27.990Z,17.02
2024-02-23T12:29:55.522Z,17.03
2024-02-23T12:32:22.812Z,17.03
2024-02-23T12:34:50.009Z,17.03
2024-02-23T12:37:18.228Z,17.03
2024-02-23T12:39:45.311Z,17.05
2024-02-23T12:42:11.885Z,17.04
2024-02-23T12:44:38.492Z,17.04
2024-02-23T12:47:05.445Z,17.06
2024-02-23T12:49:32.229Z,17.07
2024-02-23T12:51:58.710Z,17.07
2024-02-23T12:54:25.191Z,17.08
2024-02-23T12:56:51.661Z,17.08
2024-02-23T12:59:19.100Z,17.11
2024-02-23T13:01:47.228Z,17.11
2024-02-23T13:04:15.262Z,17.12
2024-02-23T13:06:42.129Z,17.11
2024-02-23T13:09:10.177Z,17.12
2024-02-23T13:11:39.512Z,17.12
2024-02-23T13:14:06.113Z,17.12
2024-02-23T13:16:32.757Z,17.13
2024-02-23T13:18:59.246Z,17.14
2024-02-23T13:21:25.849Z,17.13
2024-02-23T13:23:52.336Z,17.13
2024-02-23T13:26:18.827Z,17.14
2024-02-23T13:28:45.623Z,17.14
2024-02-23T13:31:13.051Z,17.13
2024-02-23T13:33:39.816Z,17.14
2024-02-23T13:36:06.860Z,17.14
2024-02-23T13:38:39.163Z,17.17
2024-02-23T13:41:06.954Z,17.21
2024-02-23T13:43:34.745Z,17.23
2024-02-23T13:46:01.632Z,17.23
2024-02-23T13:48:28.369Z,17.25
2024-02-23T13:50:55.058Z,17.25
2024-02-23T13:53:21.768Z,17.23
2024-02-23T13:55:48.984Z,17.25
2024-02-23T13:58:15.643Z,17.25
2024-02-23T14:00:42.326Z,17.25
2024-02-23T14:03:09.514Z,17.28
2024-02-23T14:05:36.420Z,17.30
2024-02-23T14:08:06.690Z,17.30
2024-02-23T14:10:34.647Z,17.30
2024-02-23T14:13:01.717Z,17.33
2024-02-23T14:15:28.356Z,17.33
2024-02-23T14:17:55.013Z,17.33
2024-02-23T14:20:21.626Z,17.33
2024-02-23T14:22:48.454Z,17.32
2024-02-23T14:25:14.994Z,17.31
2024-02-23T14:27:41.570Z,17.32
2024-02-23T14:30:09.595Z,17.34
2024-02-23T14:32:36.531Z,17.35
2024-02-23T14:35:04.970Z,17.36
2024-02-23T14:37:31.716Z,17.36
2024-02-23T14:39:58.212Z,17.35
2024-02-23T14:42:24.759Z,17.36
2024-02-23T14:44:51.342Z,17.37
2024-02-23T14:47:18.487Z,17.37
2024-02-23T14:49:46.901Z,17.36
2024-02-23T14:52:15.601Z,17.36
2024-02-23T14:54:42.476Z,17.36
2024-02-23T14:57:09.047Z,17.36
2024-02-23T14:59:42.627Z,17.34
2024-02-23T15:02:10.541Z,17.33
2024-02-23T15:04:37.079Z,17.33
2024-02-23T15:07:03.761Z,17.32
2024-02-23T15:09:30.297Z,17.32
2024-02-23T15:11:56.918Z,17.30
2024-02-23T15:14:23.492Z,17.31
2024-02-23T15:16:49.976Z,17.27
2024-02-23T15:19:16.619Z,17.27
2024-02-23T15:21:43.677Z,17.27
2024-02-23T15:24:10.661Z,17.27
2024-02-23T15:26:37.325Z,17.26
2024-02-23T15:29:04.522Z,17.27
2024-02-23T15:31:31.757Z,17.27
2024-02-23T15:33:59.380Z,17.26
2024-02-23T15:36:25.976Z,17.27
2024-02-23T15:38:54.083Z,17.27
2024-02-23T15:41:20.718Z,17.29
2024-02-23T15:43:47.194Z,17.27
2024-02-23T15:46:13.681Z,17.26
2024-02-23T15:48:40.344Z,17.27
2024-02-23T15:51:15.545Z,17.26
2024-02-23T15:53:50.829Z,17.24
2024-02-23T15:56:17.447Z,17.26
2024-02-23T15:58:43.939Z,17.25
2024-02-23T16:01:10.632Z,17.25
2024-02-23T16:03:37.176Z,17.24
2024-02-23T16:06:04.078Z,17.25
2024-02-23T16:08:47.578Z,17.24
2024-02-23T16:11:16.217Z,17.23
2024-02-23T16:13:43.305Z,17.23
2024-02-23T16:16:11.749Z,17.22
2024-02-23T16:18:39.231Z,17.21
2024-02-23T16:21:06.013Z,17.22
2024-02-23T16:23:32.612Z,17.22
2024-02-23T16:25:59.205Z,17.21
2024-02-23T16:28:25.762Z,17.23
2024-02-23T16:30:52.259Z,17.22
2024-02-23T16:33:18.939Z,17.22
2024-02-23T16:35:45.633Z,17.20
2024-02-23T16:38:12.385Z,17.20
2024-02-23T16:40:40.401Z,17.20
2024-02-23T16:43:06.869Z,17.21
2024-02-23T16:45:33.488Z,17.21
2024-02-23T16:48:02.268Z,17.19
2024-02-23T16:50:29.061Z,17.20
2024-02-23T16:52:55.708Z,17.19
2024-02-23T16:55:22.741Z,17.19
2024-02-23T16:57:49.228Z,17.20
2024-02-23T17:00:16.136Z,17.19
2024-02-23T17:02:42.652Z,17.19
2024-02-23T17:05:09.460Z,17.20
2024-02-23T17:07:36.762Z,17.21
2024-02-23T17:10:03.350Z,17.23
2024-02-23T17:12:29.889Z,17.25
2024-02-23T17:14:56.403Z,17.25
2024-02-23T17:17:22.954Z,17.26
2024-02-23T17:19:49.525Z,17.27
2024-02-23T17:22:16.268Z,17.29
2024-02-23T17:24:42.802Z,17.30
2024-02-23T17:27:10.001Z,17.31
2024-02-23T17:29:36.600Z,17.32
2024-02-23T17:32:03.217Z,17.31
2024-02-23T17:34:29.730Z,17.33
2024-02-23T17:36:56.173Z,17.34
2024-02-23T17:39:24.460Z,17.36
2024-02-23T17:41:51.059Z,17.36
2024-02-23T17:44:18.980Z,17.38
2024-02-23T17:46:48.920Z,17.39
2024-02-23T17:49:16.391Z,17.39
2024-02-23T17:51:43.446Z,17.41
2024-02-23T17:54:10.043Z,17.41
2024-02-23T17:56:36.694Z,17.42
2024-02-23T17:59:04.207Z,17.40
2024-02-23T18:01:30.966Z,17.42
2024-02-23T18:03:57.605Z,17.41
2024-02-23T18:06:25.023Z,17.40
2024-02-23T18:08:52.206Z,17.39
2024-02-23T18:11:20.972Z,17.37
2024-02-23T18:13:48.478Z,17.34
2024-02-23T18:16:19.334Z,17.34
2024-02-23T18:18:46.844Z,17.33
2024-02-23T18:21:17.401Z,17.33
2024-02-23T18:23:45.018Z,17.34
2024-02-23T18:26:13.573Z,17.32
2024-02-23T18:28:40.173Z,17.34
2024-02-23T18:31:06.649Z,17.35
2024-02-23T18:33:33.344Z,17.34
2024-02-23T18:35:59.856Z,17.36
2024-02-23T18:38:26.561Z,17.35
2024-02-23T18:40:53.068Z,17.35
2024-02-23T18:43:19.562Z,17.36
2024-02-23T18:45:46.062Z,17.36
2024-02-23T18:48:12.652Z,17.36
2024-02-23T18:50:39.421Z,17.36
2024-02-23T18:53:06.542Z,17.36
2024-02-23T18:55:38.567Z,17.37
2024-02-23T18:58:06.851Z,17.38
2024-02-23T19:00:33.427Z,17.38
2024-02-23T19:02:59.981Z,17.39
2024-02-23T19:05:26.808Z,17.38
2024-02-23T19:07:53.328Z,17.38
2024-02-23T19:10:19.919Z,17.37
2024-02-23T19:12:46.688Z,17.38
2024-02-23T19:15:13.484Z,17.36
2024-02-23T19:17:42.061Z,17.36
2024-02-23T19:20:10.667Z,17.34
2024-02-23T19:22:38.650Z,17.33
2024-02-23T19:25:14.044Z,17.31
2024-02-23T19:27:41.213Z,17.30
2024-02-23T19:30:12.212Z,17.29
2024-02-23T19:32:39.058Z,17.27
2024-02-23T19:35:06.010Z,17.26
2024-02-23T19:37:32.828Z,17.24
2024-02-23T19:39:59.363Z,17.24
2024-02-23T19:42:25.897Z,17.23
2024-02-23T19:44:52.386Z,17.23
2024-02-23T19:47:19.053Z,17.20
2024-02-23T19:49:45.647Z,17.18
2024-02-23T19:52:14.849Z,17.19
2024-02-23T19:54:42.442Z,17.18
2024-02-23T19:57:09.011Z,17.17
2024-02-23T19:59:38.110Z,17.16
2024-02-23T20:02:09.758Z,17.14
2024-02-23T20:04:36.470Z,17.15
2024-02-23T20:07:04.460Z,17.14
2024-02-23T20:09:31.561Z,17.13
2024-02-23T20:11:58.258Z,17.13
2024-02-23T20:14:24.973Z,17.11
2024-02-23T20:16:51.518Z,17.11
2024-02-23T20:19:18.084Z,17.08
2024-02-23T20:21:44.664Z,17.10
2024-02-23T20:24:11.281Z,17.08
2024-02-23T20:26:37.959Z,17.08
2024-02-23T20:29:04.538Z,17.06
2024-02-23T20:31:31.042Z,17.07
2024-02-23T20:33:58.785Z,17.05
2024-02-23T20:36:25.533Z,17.06
2024-02-23T20:38:52.219Z,17.06
2024-02-23T20:41:19.912Z,17.06
2024-02-23T20:43:46.412Z,17.05
2024-02-23T20:46:12.916Z,17.05
2024-02-23T20:48:39.574Z,17.04
2024-02-23T20:51:08.866Z,17.04
2024-02-23T20:53:35.517Z,17.04
2024-02-23T20:56:02.238Z,17.02
2024-02-23T20:58:28.852Z,17.01
2024-02-23T21:00:57.176Z,17.01
2024-02-23T21:03:25.888Z,17.02
2024-02-23T21:05:52.420Z,17.01
2024-02-23T21:08:18.990Z,16.99
2024-02-23T21:10:45.661Z,17.00
2024-02-23T21:13:12.136Z,17.01
2024-02-23T21:15:39.308Z,17.00
2024-02-23T21:18:06.307Z,17.01
2024-02-23T21:20:32.955Z,16.99
2024-02-23T21:22:59.494Z,17.00
2024-02-23T21:25:25.996Z,17.00
2024-02-23T21:27:52.514Z,17.00
2024-02-23T21:30:19.043Z,17.00
2024-02-23T21:32:45.616Z,16.99
2024-02-23T21:35:12.179Z,16.99
2024-02-23T21:37:38.712Z,16.99
2024-02-23T21:40:07.039Z,16.98
2024-02-23T21:42:33.672Z,16.98
2024-02-23T21:45:00.170Z,16.97
2024-02-23T21:47:26.744Z,16.97
2024-02-23T21:49:53.310Z,16.96
2024-02-23T21:52:19.770Z,16.97
2024-02-23T21:54:46.399Z,16.98
2024-02-23T21:57:13.073Z,16.97
2024-02-23T21:59:39.620Z,16.98
2024-02-23T22:02:06.897Z,16.97
2024-02-23T22:04:34.708Z,16.96
2024-02-23T22:07:01.291Z,16.97
2024-02-23T22:09:27.791Z,16.96
2024-02-23T22:11:54.689Z,16.96
2024-02-23T22:14:21.297Z,16.95
2024-02-23T22:16:47.821Z,16.96
2024-02-23T22:19:14.397Z,16.96
2024-02-23T22:21:40.911Z,16.94
2024-02-23T22:24:07.687Z,16.95
2024-02-23T22:26:36.658Z,16.94
2024-02-23T22:29:03.517Z,16.94
2024-02-23T22:31:29.973Z,16.94
2024-02-23T22:33:56.747Z,16.93
2024-02-23T22:36:23.407Z,16.92
2024-02-23T22:38:49.991Z,16.93
2024-02-23T22:41:16.601Z,16.92
2024-02-23T22:43:43.116Z,16.92
2024-02-23T22:46:09.691Z,16.92
2024-02-23T22:48:37.061Z,16.91
2024-02-23T22:51:03.644Z,16.92
2024-02-23T22:53:32.093Z,16.92
2024-02-23T22:55:59.988Z,16.91
2024-02-23T22:58:26.514Z,16.89
2024-02-23T23:00:53.004Z,16.90
2024-02-23T23:03:19.536Z,16.89
2024-02-23T23:05:46.172Z,16.89
2024-02-23T23:08:12.878Z,16.89
2024-02-23T23:10:39.527Z,16.89
2024-02-23T23:13:06.005Z,16.90
2024-02-23T23:15:32.461Z,16.88
2024-02-23T23:17:59.088Z,16.87
2024-02-23T23:20:25.798Z,16.88
2024-02-23T23:22:52.315Z,16.88
2024-02-23T23:25:18.814Z,16.86
2024-02-23T23:27:45.267Z,16.86
2024-02-23T23:30:12.582Z,16.85
2024-02-23T23:32:41.285Z,16.86
2024-02-23T23:35:08.375Z,16.84
2024-02-23T23:37:34.866Z,16.85
2024-02-23T23:40:01.439Z,16.82
2024-02-23T23:42:27.881Z,16.83
2024-02-23T23:44:54.476Z,16.82
2024-02-23T23:47:21.064Z,16.82
2024-02-23T23:49:47.560Z,16.84
2024-02-23T23:52:14.653Z,16.82
2024-02-23T23:54:41.175Z,16.84
2024-02-23T23:57:07.662Z,16.83
2024-02-23T23:59:34.102Z,16.81
